Time;durP1;ratioP1;P1;durP2;ratioP2;P2;SDS_P1;SDS_P2;PMS_P1;PMS_P2;Temp;Humidity;BMP_temperature;BMP_pressure;BME280_temperature;BME280_humidity;BME280_pressure;Samples;Min_cycle;Max_cycle;Signal;HPM_P1;HPM_P2
2023/01/01 00:01:28;;;;;;;44.17;27.60;;;;;;;3.95;72.57;101611.94;5078309;28;20447;-28
2023/01/01 00:03:56;;;;;;;47.40;29.77;;;;;;;3.78;73.57;101599.38;5078937;28;20108;-27
2023/01/01 00:06:22;;;;;;;49.15;29.65;;;;;;;3.67;74.35;101603.00;5078347;28;20032;-29
2023/01/01 00:08:48;;;;;;;47.58;28.60;;;;;;;3.28;76.91;101617.88;5077407;28;20031;-27
2023/01/01 00:11:14;;;;;;;56.72;32.00;;;;;;;3.13;78.34;101614.78;5079604;28;20032;-30
2023/01/01 00:13:41;;;;;;;57.20;32.95;;;;;;;3.04;78.65;101616.38;5062804;28;20403;-27
2023/01/01 00:16:12;;;;;;;63.58;37.55;;;;;;;2.85;79.20;101605.75;5076385;28;20032;-28
2023/01/01 00:18:38;;;;;;;72.00;39.90;;;;;;;2.71;81.23;101620.91;5069779;28;20107;-26
2023/01/01 00:21:10;;;;;;;63.75;37.15;;;;;;;2.55;81.60;101612.63;5062930;28;20043;-26
2023/01/01 00:23:36;;;;;;;70.65;43.50;;;;;;;3.01;80.16;101627.19;5071404;28;20524;-27
2023/01/01 00:26:09;;;;;;;73.68;42.63;;;;;;;2.87;80.48;101615.19;5089364;28;20058;-28
2023/01/01 00:28:34;;;;;;;71.03;42.40;;;;;;;2.64;81.42;101596.06;5089057;28;20032;-28
2023/01/01 00:31:08;;;;;;;69.10;40.85;;;;;;;2.83;81.84;101624.31;5089711;28;20030;-27
2023/01/01 00:33:33;;;;;;;67.93;42.47;;;;;;;3.01;81.66;101628.03;5089310;28;20043;-28
2023/01/01 00:36:07;;;;;;;72.47;42.58;;;;;;;3.15;79.69;101607.56;5071014;28;20023;-29
2023/01/01 00:38:33;;;;;;;71.68;41.90;;;;;;;2.80;80.73;101608.78;5089223;28;20034;-27
2023/01/01 00:40:59;;;;;;;68.00;38.80;;;;;;;2.87;81.28;101635.44;5089157;28;20060;-29
2023/01/01 00:43:24;;;;;;;70.60;41.65;;;;;;;2.60;80.57;101623.63;5089440;28;20108;-27
2023/01/01 00:45:52;;;;;;;67.60;40.45;;;;;;;2.52;81.49;101647.97;5071204;28;20035;-27
2023/01/01 00:48:20;;;;;;;70.75;40.90;;;;;;;2.67;81.32;101645.00;5070901;28;20498;-27
2023/01/01 00:50:49;;;;;;;68.47;40.80;;;;;;;2.67;80.45;101645.00;5089257;28;20815;-26
2023/01/01 00:53:14;;;;;;;69.43;41.20;;;;;;;2.69;80.13;101638.63;5082889;28;20020;-28
2023/01/01 00:55:41;;;;;;;71.18;40.45;;;;;;;2.55;79.24;101657.41;5077309;28;20025;-26
2023/01/01 00:58:07;;;;;;;71.72;39.30;;;;;;;2.45;80.16;101652.03;5062811;28;20040;-26
2023/01/01 01:00:33;;;;;;;62.03;35.72;;;;;;;2.65;78.71;101653.03;5080044;28;20043;-26
2023/01/01 01:02:59;;;;;;;54.13;34.03;;;;;;;2.51;79.55;101655.97;5059596;28;20020;-27
2023/01/01 01:05:24;;;;;;;47.58;29.65;;;;;;;2.35;80.93;101641.47;5078680;28;20036;-30
2023/01/01 01:07:49;;;;;;;45.72;28.10;;;;;;;2.22;81.26;101625.00;5063751;28;20024;-27
2023/01/01 01:10:15;;;;;;;49.05;28.63;;;;;;;2.34;81.59;101642.41;5066821;28;20047;-27
2023/01/01 01:12:41;;;;;;;45.03;26.63;;;;;;;1.49;81.89;101608.09;5093187;28;20495;-27
2023/01/01 01:15:08;;;;;;;44.90;25.88;;;;;;;1.19;83.24;101627.94;5093260;28;20024;-26
2023/01/01 01:17:35;;;;;;;41.15;24.48;;;;;;;0.71;81.05;101604.50;5074971;28;20576;-26
2023/01/01 01:20:01;;;;;;;41.78;24.10;;;;;;;1.43;79.65;101624.34;5092788;28;20031;-25
2023/01/01 01:22:26;;;;;;;44.03;25.02;;;;;;;1.41;80.74;101598.19;5092703;28;20423;-26
2023/01/01 01:24:52;;;;;;;45.38;26.35;;;;;;;1.71;80.60;101615.94;5092742;28;20032;-26
2023/01/01 01:27:17;;;;;;;52.60;28.25;;;;;;;1.52;82.04;101599.97;5092888;28;20016;-27
2023/01/01 01:29:43;;;;;;;54.30;27.77;;;;;;;1.52;83.08;101619.19;5074669;28;20051;-27
2023/01/01 01:32:10;;;;;;;50.17;27.67;;;;;;;1.42;82.43;101602.47;5074456;28;20035;-26
2023/01/01 01:34:36;;;;;;;46.87;27.23;;;;;;;1.11;84.37;101585.66;5092785;28;20528;-25
2023/01/01 01:37:01;;;;;;;53.53;28.73;;;;;;;1.34;85.39;101608.34;5092737;28;20269;-27
2023/01/01 01:39:26;;;;;;;56.80;31.48;;;;;;;1.13;85.45;101581.97;5092467;28;20036;-28
2023/01/01 01:41:52;;;;;;;54.00;32.03;;;;;;;1.24;85.48;101601.31;5074695;28;20039;-25
2023/01/01 01:44:48;;;;;;;54.53;30.48;;;;;;;1.38;85.65;101604.50;5074243;28;20426;-27
2023/01/01 01:47:50;;;;;;;52.38;29.90;;;;;;;1.09;86.34;101614.69;5074243;28;20035;-26
2023/01/01 01:50:36;;;;;;;51.72;28.98;;;;;;;0.70;88.28;101598.41;5092464;28;20035;-25
2023/01/01 01:53:07;;;;;;;48.83;29.30;;;;;;;1.02;86.85;101602.97;5074182;28;20032;-26
2023/01/01 01:55:37;;;;;;;54.03;27.67;;;;;;;1.13;86.23;101605.59;5092677;28;20028;-26
2023/01/01 01:58:07;;;;;;;55.78;29.48;;;;;;;1.24;85.41;101596.06;5091947;28;20519;-27
2023/01/01 02:00:32;;;;;;;55.47;28.67;;;;;;;1.47;86.07;101612.63;5092544;28;20883;-28
2023/01/01 02:03:06;;;;;;;58.75;27.52;;;;;;;1.22;86.86;101595.34;5092216;28;20059;-26
2023/01/01 02:05:33;;;;;;;51.72;27.25;;;;;;;1.38;87.12;101595.81;5092328;28;20032;-26
2023/01/01 02:07:59;;;;;;;46.97;27.83;;;;;;;1.68;86.24;101620.63;5073677;28;20124;-27
2023/01/01 02:10:26;;;;;;;47.38;28.00;;;;;;;1.43;84.33;101591.03;5092146;28;20066;-26
2023/01/01 02:12:52;;;;;;;46.15;26.20;;;;;;;1.18;85.96;101613.94;5091750;28;20032;-26
2023/01/01 02:15:18;;;;;;;47.05;27.27;;;;;;;0.97;84.08;101616.47;5092072;28;20032;-27
2023/01/01 02:17:55;;;;;;;49.42;26.88;;;;;;;0.85;83.37;101627.06;5073682;28;20111;-27
2023/01/01 02:20:45;;;;;;;52.33;29.52;;;;;;;0.53;85.76;101615.44;5073107;28;20418;-25
2023/01/01 02:23:48;;;;;;;50.55;26.95;;;;;;;0.48;86.11;101621.97;5073502;28;20056;-26
2023/01/01 02:26:37;;;;;;;46.65;28.50;;;;;;;0.66;84.74;101633.72;5073312;28;20410;-26
2023/01/01 02:29:26;;;;;;;60.40;32.63;;;;;;;1.03;85.17;101615.16;5053463;28;20032;-25
2023/01/01 02:32:04;;;;;;;48.22;26.65;;;;;;;0.80;83.75;101588.88;5091980;28;20027;-26
2023/01/01 02:34:37;;;;;;;48.92;26.60;;;;;;;1.24;84.73;101607.38;5092181;28;20093;-27
2023/01/01 02:37:07;;;;;;;49.90;27.10;;;;;;;1.07;83.84;101616.59;5091541;28;20491;-26
2023/01/01 02:39:36;;;;;;;51.20;26.92;;;;;;;0.70;83.97;101611.53;5091365;28;20411;-27
2023/01/01 02:42:04;;;;;;;45.10;26.25;;;;;;;0.51;83.50;101603.38;5090998;28;20443;-28
2023/01/01 02:44:31;;;;;;;;;;;;;;;0.84;83.87;101625.38;5092118;28;20035;-25
2023/01/01 02:47:05;;;;;;;49.22;27.00;;;;;;;1.11;84.86;101601.44;5091519;28;20006;-28
2023/01/01 02:49:30;;;;;;;50.42;27.08;;;;;;;1.16;83.77;101607.16;5091284;28;20024;-29
2023/01/01 02:52:04;;;;;;;55.90;32.03;;;;;;;1.30;84.42;101633.19;5091174;28;20032;-26
2023/01/01 02:54:30;;;;;;;47.47;27.27;;;;;;;1.55;82.58;101634.75;5091508;28;20571;-26
2023/01/01 02:57:22;;;;;;;46.78;25.02;;;;;;;0.84;82.14;101630.66;5091296;28;20531;-27
2023/01/01 03:03:10;;;;;;;43.53;24.48;;;;;;;0.24;84.30;101628.09;5091432;28;20082;-27
2023/01/01 03:06:21;;;;;;;46.10;25.27;;;;;;;0.25;85.18;101619.28;5056699;28;20449;-25
2023/01/01 03:08:53;;;;;;;44.28;24.88;;;;;;;0.15;83.94;101615.66;5090543;28;20044;-27
2023/01/01 03:11:21;;;;;;;42.28;23.27;;;;;;;0.12;83.16;101594.88;5068587;28;20042;-26
2023/01/01 03:14:07;;;;;;;45.30;25.88;;;;;;;0.84;83.39;101614.88;5090852;28;20066;-27
2023/01/01 03:16:48;;;;;;;49.30;29.20;;;;;;;0.59;84.39;101622.84;5091240;28;20054;-25
2023/01/01 03:19:18;;;;;;;52.47;27.15;;;;;;;0.46;84.72;101600.25;5090736;28;20551;-27
2023/01/01 03:21:59;;;;;;;44.53;25.13;;;;;;;0.52;85.20;101618.19;5090536;28;20067;-25
2023/01/01 03:24:33;;;;;;;42.85;23.15;;;;;;;0.35;83.97;101620.28;5086277;28;20499;-27
2023/01/01 03:27:04;;;;;;;44.05;24.52;;;;;;;0.25;85.43;101608.78;5070351;28;20025;-26
2023/01/01 03:29:34;;;;;;;41.08;23.52;;;;;;;0.18;84.57;101620.66;5052173;28;20404;-26
2023/01/01 03:32:03;;;;;;;43.55;24.42;;;;;;;0.19;85.68;101610.06;5069270;28;20060;-30
2023/01/01 03:34:36;;;;;;;47.00;24.85;;;;;;;0.40;85.54;101612.88;5070480;28;20028;-27
2023/01/01 03:37:07;;;;;;;56.47;25.75;;;;;;;0.70;85.68;101615.97;5070114;28;20480;-26
2023/01/01 03:39:47;;;;;;;63.72;30.58;;;;;;;0.62;87.58;101606.03;5070140;28;20110;-26
2023/01/01 03:42:37;;;;;;;61.08;27.98;;;;;;;0.53;88.18;101628.56;5069888;28;20106;-31
2023/01/01 03:45:20;;;;;;;61.92;28.70;;;;;;;0.58;87.10;101608.03;5052411;28;20027;-27
2023/01/01 03:47:46;;;;;;;61.20;29.33;;;;;;;0.64;87.57;101611.19;5069984;28;20043;-29
2023/01/01 03:50:13;;;;;;;62.22;28.88;;;;;;;0.74;87.54;101635.78;5069742;28;20411;-26
2023/01/01 03:52:52;;;;;;;60.90;29.70;;;;;;;0.71;86.92;101631.56;5070085;28;20039;-27
2023/01/01 03:55:40;;;;;;;75.55;37.88;;;;;;;0.72;85.54;101612.25;5052091;28;20020;-26
2023/01/01 03:58:16;;;;;;;62.00;30.98;;;;;;;0.70;86.28;101608.91;5051561;28;20032;-26
2023/01/01 04:01:03;;;;;;;54.08;28.73;;;;;;;0.66;87.38;101625.84;5070099;28;20028;-25
2023/01/01 04:03:31;;;;;;;54.40;29.52;;;;;;;0.74;86.73;101631.34;5070323;28;20025;-29
2023/01/01 04:05:56;;;;;;;63.70;30.70;;;;;;;0.82;86.60;101635.19;5069866;28;20558;-26
2023/01/01 04:08:22;;;;;;;60.53;30.02;;;;;;;0.72;85.68;101627.19;5069332;28;20128;-27
2023/01/01 04:10:55;;;;;;;69.15;34.38;;;;;;;0.68;85.08;101610.81;5069677;28;20052;-28
2023/01/01 04:13:21;;;;;;;71.20;38.92;;;;;;;1.09;84.99;101630.44;5069620;28;20456;-28
2023/01/01 04:15:46;;;;;;;67.82;35.20;;;;;;;0.73;86.40;101621.78;5069233;28;20086;-26
2023/01/01 04:18:11;;;;;;;73.65;35.22;;;;;;;0.54;86.46;101634.66;5051302;28;20450;-26
2023/01/01 04:20:37;;;;;;;82.53;37.17;;;;;;;0.28;87.79;101612.97;5069572;28;20040;-25
2023/01/01 04:23:03;;;;;;;71.78;36.08;;;;;;;0.48;87.31;101638.56;5051197;28;20044;-25
2023/01/01 04:25:29;;;;;;;69.05;35.03;;;;;;;0.69;86.69;101638.72;5069448;28;20028;-26
2023/01/01 04:27:54;;;;;;;65.07;35.60;;;;;;;0.39;87.05;101616.47;5051268;28;20689;-29
2023/01/01 04:30:20;;;;;;;65.97;33.95;;;;;;;0.47;87.08;101612.41;5068891;28;20032;-25
2023/01/01 04:32:46;;;;;;;62.17;35.10;;;;;;;0.94;85.58;101642.13;5069322;28;20539;-27
2023/01/01 04:35:13;;;;;;;77.00;39.17;;;;;;;1.04;84.13;101631.75;5069480;28;20040;-29
2023/01/01 04:37:40;;;;;;;90.07;57.33;;;;;;;0.87;85.47;101640.94;5069288;28;20024;-26
2023/01/01 04:40:07;;;;;;;82.07;46.65;;;;;;;0.83;85.73;101634.25;5069094;28;20029;-25
2023/01/01 04:42:33;;;;;;;170.05;110.88;;;;;;;0.64;86.58;101619.06;5068989;28;20031;-32
2023/01/01 04:44:59;;;;;;;74.88;40.90;;;;;;;0.52;86.73;101623.44;5068881;28;20028;-28
2023/01/01 04:47:27;;;;;;;69.30;39.70;;;;;;;0.63;86.98;101644.44;5069225;28;20078;-25
2023/01/01 04:49:52;;;;;;;;;;;;;;;0.60;87.63;101665.69;5069387;28;20029;-29
2023/01/01 04:52:18;;;;;;;74.70;36.40;;;;;;;0.31;86.96;101634.56;5050863;28;19919;-26
2023/01/01 04:54:43;;;;;;;68.78;36.70;;;;;;;0.25;86.55;101655.19;5068891;28;20502;-28
2023/01/01 04:57:09;;;;;;;77.75;39.40;;;;;;;0.10;85.93;101662.38;5050903;28;20415;-30
2023/01/01 04:59:34;;;;;;;69.45;34.22;;;;;;;0.08;84.00;101644.16;5068917;28;20781;-29
2023/01/01 05:02:00;;;;;;;72.22;37.80;;;;;;;0.02;84.27;101656.84;5068928;28;20133;-26
2023/01/01 05:04:26;;;;;;;65.55;33.60;;;;;;;-0.02;84.00;101654.47;5069066;28;20043;-28
2023/01/01 05:06:51;;;;;;;64.13;34.00;;;;;;;0.09;84.50;101666.78;5069003;28;20028;-26
2023/01/01 05:09:16;;;;;;;65.63;34.83;;;;;;;0.20;83.34;101671.25;5068948;28;20031;-26
2023/01/01 05:11:42;;;;;;;61.80;31.70;;;;;;;0.29;83.15;101667.97;5050596;28;20408;-25
2023/01/01 05:14:07;;;;;;;64.70;35.67;;;;;;;0.19;84.61;101645.97;5068473;28;20025;-25
2023/01/01 05:16:36;;;;;;;78.13;38.75;;;;;;;0.24;86.61;101667.44;5068891;28;20039;-27
2023/01/01 05:19:02;;;;;;;67.10;34.13;;;;;;;0.21;85.61;101680.81;5069064;28;20040;-26
2023/01/01 05:21:32;;;;;;;82.57;37.10;;;;;;;0.15;86.04;101676.00;5068629;28;20074;-27
2023/01/01 05:24:00;;;;;;;73.00;34.47;;;;;;;0.32;86.97;101667.72;5068785;28;20032;-27
2023/01/01 05:26:29;;;;;;;67.57;33.60;;;;;;;0.63;86.87;101672.50;5050313;28;20113;-29
2023/01/01 05:28:55;;;;;;;;;;;;;;;0.71;85.38;101678.00;5051242;28;20362;-28
2023/01/01 05:31:25;;;;;;;70.30;33.97;;;;;;;0.46;86.07;101669.34;5050718;28;20355;-25
2023/01/01 05:33:51;;;;;;;69.53;37.10;;;;;;;0.32;86.04;101645.91;5068781;28;20086;-26
2023/01/01 05:36:44;;;;;;;59.70;33.03;;;;;;;0.28;85.74;101686.44;5068532;28;20029;-26
2023/01/01 05:39:11;;;;;;;63.10;33.47;;;;;;;0.31;86.58;101676.56;5065345;28;20040;-26
2023/01/01 05:41:37;;;;;;;62.10;32.65;;;;;;;0.40;85.85;101686.38;5068620;28;20025;-27
2023/01/01 05:44:07;;;;;;;71.80;34.90;;;;;;;0.21;86.44;101661.63;5068343;28;20028;-27
2023/01/01 05:46:33;;;;;;;110.53;45.10;;;;;;;0.36;86.08;101684.91;5068564;28;20028;-26
2023/01/01 05:48:59;;;;;;;110.47;47.25;;;;;;;0.38;86.71;101684.81;5050451;28;20021;-28
2023/01/01 05:51:27;;;;;;;173.65;64.50;;;;;;;0.24;87.01;101688.44;5068397;28;20032;-27
2023/01/01 05:53:54;;;;;;;238.80;79.93;;;;;;;0.31;87.47;101676.56;5067999;28;20032;-27
2023/01/01 05:56:20;;;;;;;225.48;66.93;;;;;;;0.10;86.87;101659.75;5070394;28;20043;-26
2023/01/01 05:58:45;;;;;;;184.75;55.72;;;;;;;0.07;89.94;101673.09;5072245;28;20035;-29
2023/01/01 06:01:12;;;;;;;153.80;52.15;;;;;;;-0.22;89.29;101657.69;5054244;28;20032;-26
2023/01/01 06:03:39;;;;;;;199.80;60.22;;;;;;;-0.39;92.09;101673.75;5071820;28;20020;-25
2023/01/01 06:06:07;;;;;;;122.28;48.08;;;;;;;-0.16;90.86;101683.47;5053924;28;20032;-27
2023/01/01 06:08:33;;;;;;;106.25;44.40;;;;;;;-0.22;90.90;101684.72;5071822;28;20506;-26
2023/01/01 06:11:04;;;;;;;103.15;44.97;;;;;;;-0.31;90.36;101668.81;5071937;28;20032;-27
2023/01/01 06:13:30;;;;;;;85.80;42.97;;;;;;;-0.10;90.02;101683.03;5053759;28;20020;-27
2023/01/01 06:15:57;;;;;;;78.78;41.80;;;;;;;0.01;89.84;101663.06;5071859;28;20575;-27
2023/01/01 06:18:24;;;;;;;91.20;40.85;;;;;;;-0.19;90.67;101657.44;5071614;28;22071;-28
2023/01/01 06:20:50;;;;;;;103.65;43.45;;;;;;;0.01;91.06;101676.16;5071640;28;20040;-28
2023/01/01 06:23:15;;;;;;;114.80;40.13;;;;;;;0.17;91.38;101663.63;5071410;28;20044;-33
2023/01/01 06:25:41;;;;;;;95.22;42.38;;;;;;;0.15;91.15;101655.03;5071729;28;20098;-25
2023/01/01 06:28:06;;;;;;;107.50;42.13;;;;;;;0.35;91.66;101683.25;5053461;28;20093;-28
2023/01/01 06:30:33;;;;;;;106.40;45.22;;;;;;;0.37;91.44;101675.28;5071486;28;20502;-29
2023/01/01 06:32:59;;;;;;;123.53;47.50;;;;;;;0.38;91.78;101674.31;5071728;28;20541;-26
2023/01/01 06:35:25;;;;;;;122.15;49.03;;;;;;;0.02;92.25;101659.47;5071304;28;20033;-29
2023/01/01 06:37:50;;;;;;;92.70;40.72;;;;;;;-0.26;92.89;101648.34;5071469;28;20036;-26
2023/01/01 06:40:16;;;;;;;94.82;41.38;;;;;;;-0.32;94.28;101672.38;5086856;28;20029;-28
2023/01/01 06:42:41;;;;;;;92.07;39.22;;;;;;;-0.38;94.63;101685.91;5071580;28;20024;-27
2023/01/01 06:45:07;;;;;;;94.05;39.45;;;;;;;-0.23;93.03;101663.84;5053373;28;20472;-26
2023/01/01 06:47:34;;;;;;;100.43;51.30;;;;;;;0.15;92.50;101695.19;5071002;28;20055;-25
2023/01/01 06:50:00;;;;;;;96.38;51.45;;;;;;;0.35;91.74;101693.75;5070821;28;20032;-30
2023/01/01 06:52:25;;;;;;;73.10;41.22;;;;;;;0.57;89.75;101671.16;5071029;28;20025;-29
2023/01/01 06:54:51;;;;;;;72.57;40.83;;;;;;;1.12;88.85;101698.50;5071203;28;20040;-27
2023/01/01 06:57:16;;;;;;;74.20;39.78;;;;;;;1.34;87.77;101686.38;5071075;28;20484;-26
2023/01/01 06:59:42;;;;;;;71.35;42.40;;;;;;;1.37;87.79;101694.84;5053067;28;20121;-25
2023/01/01 07:02:10;;;;;;;113.75;63.42;;;;;;;1.31;87.65;101670.81;5070819;28;20112;-26
2023/01/01 07:04:36;;;;;;;92.28;52.25;;;;;;;1.39;89.29;101686.88;5070851;28;20036;-27
2023/01/01 07:07:01;;;;;;;85.78;49.17;;;;;;;1.53;88.84;101697.13;5070097;28;20436;-26
2023/01/01 07:09:26;;;;;;;82.72;48.35;;;;;;;1.52;89.51;101678.84;5070688;28;20025;-27
2023/01/01 07:11:52;;;;;;;92.88;48.63;;;;;;;1.78;88.49;101676.81;5070759;28;20492;-27
2023/01/01 07:14:17;;;;;;;119.68;71.80;;;;;;;1.98;87.73;101670.78;5052484;28;20511;-27
2023/01/01 07:16:43;;;;;;;102.88;55.55;;;;;;;2.05;87.81;101680.81;5070720;28;20399;-27
2023/01/01 07:19:08;;;;;;;102.10;56.72;;;;;;;2.26;87.14;101686.97;5052464;28;20094;-25
2023/01/01 07:21:42;;;;;;;167.43;85.18;;;;;;;2.20;88.49;101683.00;5070313;28;20515;-28
2023/01/01 07:24:09;;;;;;;124.35;65.55;;;;;;;2.42;87.80;101705.81;5052276;28;20143;-25
2023/01/01 07:26:35;;;;;;;164.95;76.88;;;;;;;2.54;87.43;101682.06;5052661;28;20476;-26
2023/01/01 07:29:01;;;;;;;136.40;70.45;;;;;;;2.77;86.58;101699.44;5070462;28;20025;-27
2023/01/01 07:31:26;;;;;;;131.75;69.65;;;;;;;3.12;85.18;101700.91;5070157;28;20036;-27
2023/01/01 07:33:53;;;;;;;118.90;62.05;;;;;;;3.24;83.44;101700.84;5070403;28;20090;-25
2023/01/01 07:36:19;;;;;;;111.18;59.53;;;;;;;3.13;84.11;101705.22;5069877;28;20052;-28
2023/01/01 07:38:45;;;;;;;119.97;64.20;;;;;;;3.18;84.39;101703.00;5075719;28;20027;-26
2023/01/01 07:41:10;;;;;;;127.95;68.65;;;;;;;3.41;84.07;101708.13;5090233;28;20028;-27
2023/01/01 07:43:36;;;;;;;109.50;63.13;;;;;;;3.54;85.01;101708.75;5081698;28;20029;-27
2023/01/01 07:46:01;;;;;;;133.15;74.43;;;;;;;4.13;84.16;101708.94;5051780;28;20108;-29
2023/01/01 07:48:27;;;;;;;116.03;63.10;;;;;;;4.44;83.00;101707.03;5070202;28;20772;-27
2023/01/01 07:50:53;;;;;;;136.40;74.22;;;;;;;4.26;84.02;101691.03;5069912;28;20412;-25
2023/01/01 07:53:18;;;;;;;126.75;72.18;;;;;;;4.40;84.37;101706.47;5070366;28;20028;-26
2023/01/01 07:55:44;;;;;;;123.57;68.97;;;;;;;4.61;84.15;101708.13;5052061;28;20025;-28
2023/01/01 07:58:10;;;;;;;124.93;69.50;;;;;;;4.85;83.53;101702.44;5069623;28;20127;-28
2023/01/01 08:00:36;;;;;;;124.65;69.05;;;;;;;5.00;82.32;101686.94;5069859;28;20111;-28
2023/01/01 08:03:01;;;;;;;109.15;58.85;;;;;;;4.91;83.21;101701.84;5070526;28;20116;-26
2023/01/01 08:05:27;;;;;;;104.57;60.03;;;;;;;5.05;82.49;101711.16;5052940;28;20032;-26
2023/01/01 08:07:52;;;;;;;109.38;61.63;;;;;;;5.07;83.03;101718.94;5069809;28;20024;-27
2023/01/01 08:10:19;;;;;;;74.07;43.88;;;;;;;5.35;81.48;101719.84;5069228;28;20035;-27
2023/01/01 08:12:44;;;;;;;65.45;40.10;;;;;;;5.41;81.95;101706.03;5051637;28;20059;-26
2023/01/01 08:15:11;;;;;;;65.15;39.50;;;;;;;5.71;81.43;101727.94;5069437;28;20064;-27
2023/01/01 08:17:37;;;;;;;61.85;37.97;;;;;;;5.95;81.12;101736.22;5051457;28;20033;-26
2023/01/01 08:20:03;;;;;;;68.13;38.55;;;;;;;5.96;80.09;101729.94;5068930;28;20047;-28
2023/01/01 08:22:30;;;;;;;65.88;37.40;;;;;;;5.87;80.63;101729.97;5051028;28;20053;-26
2023/01/01 08:24:55;;;;;;;67.30;39.38;;;;;;;6.06;80.50;101734.34;5051088;28;20143;-26
2023/01/01 08:27:20;;;;;;;84.93;57.40;;;;;;;6.29;79.58;101732.13;5069348;28;20518;-28
2023/01/01 08:29:46;;;;;;;62.63;38.83;;;;;;;6.29;79.02;101738.25;5068976;28;20082;-26
2023/01/01 08:32:12;;;;;;;61.65;39.15;;;;;;;6.44;79.05;101752.66;5051037;28;20024;-27
2023/01/01 08:34:37;;;;;;;68.18;43.75;;;;;;;6.47;80.56;101740.09;5069387;28;20028;-30
2023/01/01 08:37:03;;;;;;;60.95;39.38;;;;;;;6.43;80.31;101739.53;5068941;28;20024;-26
2023/01/01 08:39:29;;;;;;;61.05;37.42;;;;;;;6.84;77.20;101756.69;5051213;28;20393;-29
2023/01/01 08:41:55;;;;;;;56.67;35.63;;;;;;;7.06;76.89;101757.16;5068879;28;20419;-26
2023/01/01 08:44:20;;;;;;;57.63;36.28;;;;;;;6.84;78.29;101748.72;5050631;28;20050;-27
2023/01/01 08:46:46;;;;;;;60.80;37.42;;;;;;;7.03;78.80;101763.63;5069037;28;20714;-26
2023/01/01 08:49:11;;;;;;;56.85;35.88;;;;;;;7.16;78.09;101757.91;5073022;28;20080;-29
2023/01/01 08:51:37;;;;;;;55.60;34.55;;;;;;;7.38;77.28;101763.72;5089003;28;20031;-27
2023/01/01 08:54:03;;;;;;;58.65;35.88;;;;;;;7.51;76.70;101750.00;5089088;28;20080;-29
2023/01/01 08:56:29;;;;;;;54.50;35.03;;;;;;;7.53;76.54;101740.91;5089219;28;20024;-30
2023/01/01 08:58:54;;;;;;;54.38;34.53;;;;;;;7.85;74.81;101742.88;5088819;28;20384;-31
2023/01/01 09:01:20;;;;;;;50.22;32.35;;;;;;;8.16;73.79;101752.13;5089147;28;20503;-26
2023/01/01 09:03:46;;;;;;;50.67;30.23;;;;;;;7.96;73.24;101720.50;5066732;28;20039;-30
2023/01/01 09:06:12;;;;;;;50.17;32.33;;;;;;;7.90;74.18;101729.13;5088797;28;20039;-26
2023/01/01 09:08:38;;;;;;;50.08;31.27;;;;;;;8.16;74.87;101736.19;5088819;28;20035;-27
2023/01/01 09:11:03;;;;;;;44.88;30.73;;;;;;;8.37;74.46;101739.22;5089378;28;20155;-27
2023/01/01 09:13:30;;;;;;;52.22;32.80;;;;;;;8.53;74.06;101730.47;5076732;28;20512;-28
2023/01/01 09:15:56;;;;;;;41.75;28.30;;;;;;;8.67;73.65;101714.88;5079118;28;20412;-28
2023/01/01 09:18:21;;;;;;;47.80;30.42;;;;;;;8.89;73.62;101716.00;5077699;28;20032;-26
2023/01/01 09:20:47;;;;;;;47.35;29.40;;;;;;;9.04;73.38;101722.31;5077658;28;20060;-29
2023/01/01 09:23:13;;;;;;;49.08;30.17;;;;;;;9.09;73.58;101725.31;5078939;28;20037;-27
2023/01/01 09:25:38;;;;;;;51.80;30.58;;;;;;;9.35;73.32;101719.78;5076857;28;20024;-28
2023/01/01 09:28:06;;;;;;;42.17;27.13;;;;;;;9.75;71.29;101714.50;5077045;28;20392;-26
2023/01/01 09:30:32;;;;;;;48.10;29.88;;;;;;;9.82;71.35;101691.47;5082213;28;20066;-28
2023/01/01 09:32:58;;;;;;;44.85;27.70;;;;;;;10.06;69.84;101707.34;5087899;28;20511;-29
2023/01/01 09:35:23;;;;;;;47.03;28.83;;;;;;;10.21;68.85;101704.75;5072563;28;20041;-33
2023/01/01 09:37:49;;;;;;;45.15;28.73;;;;;;;10.37;69.71;101697.69;5072173;28;20513;-26
2023/01/01 09:40:23;;;;;;;45.67;27.40;;;;;;;10.24;68.96;101682.25;5072149;28;20035;-26
2023/01/01 09:42:57;;;;;;;46.08;28.08;;;;;;;10.64;68.01;101696.31;5072146;28;20101;-32
2023/01/01 09:45:28;;;;;;;42.70;26.33;;;;;;;10.89;67.52;101690.75;5072687;28;20032;-28
2023/01/01 09:48:05;;;;;;;39.22;25.50;;;;;;;10.86;66.78;101692.78;5072255;28;20025;-27
2023/01/01 09:50:34;;;;;;;37.42;23.40;;;;;;;11.16;67.18;101694.69;5054209;28;20025;-27
2023/01/01 09:53:05;;;;;;;44.50;26.52;;;;;;;11.32;65.12;101677.63;5071993;28;20024;-29
2023/01/01 09:55:52;;;;;;;35.58;23.92;;;;;;;11.58;64.38;101669.97;5071949;28;20051;-29
2023/01/01 09:58:23;;;;;;;63.75;35.65;;;;;;;11.93;63.33;101656.88;5053986;28;20029;-27
2023/01/01 10:00:53;;;;;;;35.47;22.45;;;;;;;12.00;63.09;101668.47;5054104;28;20036;-28
2023/01/01 10:03:34;;;;;;;33.85;22.55;;;;;;;12.03;61.78;101646.72;5072031;28;20032;-28
2023/01/01 10:06:02;;;;;;;34.83;22.83;;;;;;;12.29;61.65;101673.91;5071575;28;20020;-28
2023/01/01 10:08:40;;;;;;;34.25;21.67;;;;;;;12.42;61.14;101672.19;5054066;28;20031;-27
2023/01/01 10:11:42;;;;;;;35.88;22.77;;;;;;;12.52;60.80;101663.00;5070432;28;20093;-28
2023/01/01 10:14:23;;;;;;;36.53;22.73;;;;;;;12.99;60.31;101669.53;5071090;28;20028;-28
2023/01/01 10:16:53;;;;;;;36.42;21.77;;;;;;;12.83;59.06;101659.94;5071883;28;20036;-27
2023/01/01 10:19:31;;;;;;;31.20;20.75;;;;;;;13.25;58.96;101637.56;5071628;28;20098;-28
2023/01/01 10:22:05;;;;;;;33.35;22.45;;;;;;;13.54;57.60;101646.38;5071527;28;20060;-28
2023/01/01 10:24:30;;;;;;;34.38;23.35;;;;;;;14.04;57.01;101644.28;5071711;28;20036;-27
2023/01/01 10:26:57;;;;;;;34.88;23.63;;;;;;;14.17;56.80;101630.06;5071707;28;20101;-29
2023/01/01 10:29:41;;;;;;;31.02;20.25;;;;;;;14.04;54.55;101655.03;5071464;28;20031;-27
2023/01/01 10:32:25;;;;;;;26.55;18.35;;;;;;;13.96;56.16;101644.47;5071261;28;20028;-28
2023/01/01 10:34:50;;;;;;;32.42;21.00;;;;;;;14.36;54.84;101641.84;5053218;28;20025;-31
2023/01/01 10:37:16;;;;;;;26.98;17.83;;;;;;;14.92;50.91;101650.56;5070108;28;20024;-28
2023/01/01 10:39:45;;;;;;;27.27;17.95;;;;;;;14.78;51.18;101647.88;5069973;28;20043;-26
2023/01/01 10:42:12;;;;;;;32.20;19.92;;;;;;;14.77;50.69;101627.44;5071114;28;20450;-29
2023/01/01 10:44:38;;;;;;;25.95;17.42;;;;;;;15.09;50.81;101635.63;5071190;28;20067;-29
2023/01/01 10:47:28;;;;;;;26.83;17.25;;;;;;;15.76;48.91;101640.81;5071086;28;20464;-28
2023/01/01 10:49:59;;;;;;;26.55;17.45;;;;;;;16.07;47.17;101632.75;5071123;28;20120;-27
2023/01/01 10:52:39;;;;;;;28.65;18.42;;;;;;;15.71;48.42;101600.25;5070457;28;20821;-30
2023/01/01 10:55:18;;;;;;;31.02;20.73;;;;;;;15.63;48.56;101631.72;5091359;28;20028;-28
2023/01/01 10:57:43;;;;;;;34.92;21.08;;;;;;;15.73;49.00;101625.09;5091252;28;20028;-28
2023/01/01 11:00:09;;;;;;;28.90;18.42;;;;;;;15.93;47.51;101615.03;5091032;28;20032;-28
2023/01/01 11:02:34;;;;;;;28.85;20.92;;;;;;;16.16;48.02;101613.66;5072923;28;20108;-28
2023/01/01 11:05:15;;;;;;;26.63;17.67;;;;;;;16.79;45.80;101612.69;5091034;28;20039;-27
2023/01/01 11:07:42;;;;;;;23.92;15.75;;;;;;;16.60;44.51;101609.16;5072790;28;20028;-29
2023/01/01 11:10:17;;;;;;;22.80;16.38;;;;;;;17.07;43.51;101613.06;5090458;28;20028;-31
2023/01/01 11:12:42;;;;;;;22.17;14.93;;;;;;;17.39;42.87;101604.00;5091130;28;20059;-32
2023/01/01 11:15:21;;;;;;;55.05;34.30;;;;;;;17.83;41.85;101607.38;5090971;28;20464;-28
2023/01/01 11:17:46;;;;;;;25.85;19.33;;;;;;;18.01;42.41;101601.09;5090845;28;20028;-28
2023/01/01 11:20:19;;;;;;;31.13;24.40;;;;;;;18.45;39.94;101590.84;5072097;28;20039;-29
2023/01/01 11:22:49;;;;;;;30.83;25.75;;;;;;;18.77;40.91;101585.88;5090621;28;20044;-29
2023/01/01 11:25:27;;;;;;;27.38;18.08;;;;;;;18.68;41.49;101604.34;5090785;28;20031;-28
2023/01/01 11:28:11;;;;;;;;;;;;;;;18.21;41.20;101603.50;5091121;28;20520;-28